sensor_id;sensor_type;location;lat;lon;timestamp;P1;durP1;ratioP1;P2;durP2;ratioP2
63120;SDS011;54478;48.684;20.114;2023-12-22T00:00:49;12.65;;;5.28;;
63120;SDS011;54478;48.684;20.114;2023-12-22T00:03:17;11.32;;;5.97;;
63120;SDS011;54478;48.684;20.114;2023-12-22T00:05:45;15.02;;;6.75;;
63120;SDS011;54478;48.684;20.114;2023-12-22T00:08:13;13.13;;;6.90;;
63120;SDS011;54478;48.684;20.114;2023-12-22T00:10:41;12.93;;;7.53;;
63120;SDS011;54478;48.684;20.114;2023-12-22T00:13:09;10.88;;;5.75;;
63120;SDS011;54478;48.684;20.114;2023-12-22T00:15:37;11.50;;;7.00;;
63120;SDS011;54478;48.684;20.114;2023-12-22T00:18:06;8.85;;;5.15;;
63120;SDS011;54478;48.684;20.114;2023-12-22T00:20:34;10.25;;;5.80;;
63120;SDS011;54478;48.684;20.114;2023-12-22T00:23:03;7.93;;;3.83;;
63120;SDS011;54478;48.684;20.114;2023-12-22T00:25:31;11.40;;;5.93;;
63120;SDS011;54478;48.684;20.114;2023-12-22T00:27:59;13.65;;;6.20;;
63120;SDS011;54478;48.684;20.114;2023-12-22T00:30:24;12.75;;;5.93;;
63120;SDS011;54478;48.684;20.114;2023-12-22T00:32:53;11.10;;;5.93;;
63120;SDS011;54478;48.684;20.114;2023-12-22T00:35:21;15.93;;;7.20;;
63120;SDS011;54478;48.684;20.114;2023-12-22T00:37:49;15.98;;;7.75;;
63120;SDS011;54478;48.684;20.114;2023-12-22T00:40:17;8.40;;;4.90;;
63120;SDS011;54478;48.684;20.114;2023-12-22T00:42:45;10.45;;;5.22;;
63120;SDS011;54478;48.684;20.114;2023-12-22T00:45:13;18.00;;;7.90;;
63120;SDS011;54478;48.684;20.114;2023-12-22T00:47:41;17.75;;;8.50;;
63120;SDS011;54478;48.684;20.114;2023-12-22T00:50:09;17.15;;;8.73;;
63120;SDS011;54478;48.684;20.114;2023-12-22T00:52:37;18.88;;;7.45;;
63120;SDS011;54478;48.684;20.114;2023-12-22T00:55:05;15.32;;;6.65;;
63120;SDS011;54478;48.684;20.114;2023-12-22T00:57:33;11.90;;;6.30;;
63120;SDS011;54478;48.684;20.114;2023-12-22T01:00:01;16.30;;;6.95;;
63120;SDS011;54478;48.684;20.114;2023-12-22T01:02:32;20.33;;;8.35;;
63120;SDS011;54478;48.684;20.114;2023-12-22T01:05:00;21.52;;;8.77;;
63120;SDS011;54478;48.684;20.114;2023-12-22T01:07:28;14.35;;;6.95;;
63120;SDS011;54478;48.684;20.114;2023-12-22T01:09:56;13.68;;;6.80;;
63120;SDS011;54478;48.684;20.114;2023-12-22T01:12:29;15.52;;;5.88;;
63120;SDS011;54478;48.684;20.114;2023-12-22T01:14:58;15.18;;;7.03;;
63120;SDS011;54478;48.684;20.114;2023-12-22T01:17:26;22.45;;;9.90;;
63120;SDS011;54478;48.684;20.114;2023-12-22T01:19:54;17.13;;;8.32;;
63120;SDS011;54478;48.684;20.114;2023-12-22T01:22:22;12.32;;;6.97;;
63120;SDS011;54478;48.684;20.114;2023-12-22T01:24:50;12.27;;;6.45;;
63120;SDS011;54478;48.684;20.114;2023-12-22T01:27:18;14.82;;;6.68;;
63120;SDS011;54478;48.684;20.114;2023-12-22T01:29:44;16.52;;;7.75;;
63120;SDS011;54478;48.684;20.114;2023-12-22T01:32:13;16.05;;;6.30;;
63120;SDS011;54478;48.684;20.114;2023-12-22T01:34:41;10.63;;;6.03;;
63120;SDS011;54478;48.684;20.114;2023-12-22T01:37:09;11.25;;;5.35;;
63120;SDS011;54478;48.684;20.114;2023-12-22T01:39:37;11.05;;;4.53;;
63120;SDS011;54478;48.684;20.114;2023-12-22T01:42:05;9.63;;;5.18;;
63120;SDS011;54478;48.684;20.114;2023-12-22T01:44:33;9.02;;;4.93;;
63120;SDS011;54478;48.684;20.114;2023-12-22T01:47:01;9.00;;;4.88;;
63120;SDS011;54478;48.684;20.114;2023-12-22T01:49:30;8.50;;;4.70;;
63120;SDS011;54478;48.684;20.114;2023-12-22T01:51:58;8.15;;;3.97;;
63120;SDS011;54478;48.684;20.114;2023-12-22T01:54:26;9.60;;;4.68;;
63120;SDS011;54478;48.684;20.114;2023-12-22T01:56:54;10.63;;;4.78;;
63120;SDS011;54478;48.684;20.114;2023-12-22T01:59:23;10.75;;;6.00;;
63120;SDS011;54478;48.684;20.114;2023-12-22T02:01:51;8.45;;;4.55;;
63120;SDS011;54478;48.684;20.114;2023-12-22T02:04:20;9.88;;;5.38;;
63120;SDS011;54478;48.684;20.114;2023-12-22T02:06:48;14.07;;;5.93;;
63120;SDS011;54478;48.684;20.114;2023-12-22T02:09:17;13.40;;;6.65;;
63120;SDS011;54478;48.684;20.114;2023-12-22T02:11:45;13.68;;;7.22;;
63120;SDS011;54478;48.684;20.114;2023-12-22T02:14:13;11.55;;;6.57;;
63120;SDS011;54478;48.684;20.114;2023-12-22T02:22:05;12.90;;;6.10;;
63120;SDS011;54478;48.684;20.114;2023-12-22T02:24:33;13.68;;;6.15;;
63120;SDS011;54478;48.684;20.114;2023-12-22T02:29:43;8.38;;;4.13;;
63120;SDS011;54478;48.684;20.114;2023-12-22T02:32:14;8.52;;;3.67;;
63120;SDS011;54478;48.684;20.114;2023-12-22T02:34:41;6.80;;;4.85;;
63120;SDS011;54478;48.684;20.114;2023-12-22T02:37:11;5.57;;;3.42;;
63120;SDS011;54478;48.684;20.114;2023-12-22T02:39:36;8.43;;;3.67;;
63120;SDS011;54478;48.684;20.114;2023-12-22T02:42:04;6.82;;;3.63;;
63120;SDS011;54478;48.684;20.114;2023-12-22T02:44:33;5.68;;;3.10;;
63120;SDS011;54478;48.684;20.114;2023-12-22T02:46:58;7.30;;;4.75;;
63120;SDS011;54478;48.684;20.114;2023-12-22T02:49:26;11.18;;;4.80;;
63120;SDS011;54478;48.684;20.114;2023-12-22T02:51:54;9.40;;;3.92;;
63120;SDS011;54478;48.684;20.114;2023-12-22T02:54:19;7.30;;;4.22;;
63120;SDS011;54478;48.684;20.114;2023-12-22T02:56:47;8.85;;;4.47;;
63120;SDS011;54478;48.684;20.114;2023-12-22T02:59:13;6.60;;;4.43;;
63120;SDS011;54478;48.684;20.114;2023-12-22T03:01:41;10.80;;;5.25;;
63120;SDS011;54478;48.684;20.114;2023-12-22T03:04:09;10.15;;;5.55;;
63120;SDS011;54478;48.684;20.114;2023-12-22T03:06:37;8.93;;;4.35;;
63120;SDS011;54478;48.684;20.114;2023-12-22T03:09:05;9.40;;;4.82;;
63120;SDS011;54478;48.684;20.114;2023-12-22T03:11:33;11.55;;;5.68;;
63120;SDS011;54478;48.684;20.114;2023-12-22T03:14:01;12.85;;;6.25;;
63120;SDS011;54478;48.684;20.114;2023-12-22T03:16:29;11.68;;;6.93;;
63120;SDS011;54478;48.684;20.114;2023-12-22T03:18:57;11.73;;;7.07;;
63120;SDS011;54478;48.684;20.114;2023-12-22T03:21:25;16.27;;;7.82;;
63120;SDS011;54478;48.684;20.114;2023-12-22T03:23:53;13.50;;;6.95;;
63120;SDS011;54478;48.684;20.114;2023-12-22T03:26:21;17.73;;;8.23;;
63120;SDS011;54478;48.684;20.114;2023-12-22T03:28:49;15.52;;;7.72;;
63120;SDS011;54478;48.684;20.114;2023-12-22T03:31:15;9.32;;;6.07;;
63120;SDS011;54478;48.684;20.114;2023-12-22T03:33:43;13.68;;;6.72;;
63120;SDS011;54478;48.684;20.114;2023-12-22T03:36:11;10.82;;;5.78;;
63120;SDS011;54478;48.684;20.114;2023-12-22T03:38:39;15.00;;;8.32;;
63120;SDS011;54478;48.684;20.114;2023-12-22T03:41:07;16.30;;;7.32;;
63120;SDS011;54478;48.684;20.114;2023-12-22T03:43:35;14.95;;;6.95;;
63120;SDS011;54478;48.684;20.114;2023-12-22T03:46:03;14.40;;;7.43;;
63120;SDS011;54478;48.684;20.114;2023-12-22T03:48:31;17.83;;;9.50;;
63120;SDS011;54478;48.684;20.114;2023-12-22T03:50:59;20.25;;;10.20;;
63120;SDS011;54478;48.684;20.114;2023-12-22T03:53:27;18.15;;;8.85;;
63120;SDS011;54478;48.684;20.114;2023-12-22T03:55:55;23.65;;;10.43;;
63120;SDS011;54478;48.684;20.114;2023-12-22T03:58:23;17.30;;;7.20;;
63120;SDS011;54478;48.684;20.114;2023-12-22T04:00:52;17.52;;;8.13;;
63120;SDS011;54478;48.684;20.114;2023-12-22T04:03:20;16.00;;;7.97;;
63120;SDS011;54478;48.684;20.114;2023-12-22T04:05:48;19.95;;;10.13;;
63120;SDS011;54478;48.684;20.114;2023-12-22T04:08:16;27.33;;;13.30;;
63120;SDS011;54478;48.684;20.114;2023-12-22T04:10:44;19.30;;;9.32;;
63120;SDS011;54478;48.684;20.114;2023-12-22T04:13:13;17.13;;;8.15;;
63120;SDS011;54478;48.684;20.114;2023-12-22T04:15:41;23.85;;;12.18;;
63120;SDS011;54478;48.684;20.114;2023-12-22T04:18:09;17.30;;;8.27;;
63120;SDS011;54478;48.684;20.114;2023-12-22T04:20:37;15.43;;;8.00;;
63120;SDS011;54478;48.684;20.114;2023-12-22T04:23:05;17.20;;;8.02;;
63120;SDS011;54478;48.684;20.114;2023-12-22T04:25:33;17.20;;;7.72;;
63120;SDS011;54478;48.684;20.114;2023-12-22T04:28:01;13.63;;;6.28;;
63120;SDS011;54478;48.684;20.114;2023-12-22T04:30:26;10.85;;;5.15;;
63120;SDS011;54478;48.684;20.114;2023-12-22T04:32:55;20.58;;;10.02;;
63120;SDS011;54478;48.684;20.114;2023-12-22T04:35:24;12.95;;;7.35;;
63120;SDS011;54478;48.684;20.114;2023-12-22T04:37:52;13.40;;;6.95;;
63120;SDS011;54478;48.684;20.114;2023-12-22T04:40:20;7.63;;;4.70;;
63120;SDS011;54478;48.684;20.114;2023-12-22T04:42:48;7.35;;;4.28;;
63120;SDS011;54478;48.684;20.114;2023-12-22T04:45:17;22.50;;;9.00;;
63120;SDS011;54478;48.684;20.114;2023-12-22T04:47:45;111.97;;;35.33;;
63120;SDS011;54478;48.684;20.114;2023-12-22T04:50:13;46.92;;;15.32;;
63120;SDS011;54478;48.684;20.114;2023-12-22T04:52:41;59.45;;;20.25;;
63120;SDS011;54478;48.684;20.114;2023-12-22T04:55:09;34.03;;;14.23;;
63120;SDS011;54478;48.684;20.114;2023-12-22T04:57:37;87.38;;;30.25;;
63120;SDS011;54478;48.684;20.114;2023-12-22T05:00:06;30.08;;;12.63;;
63120;SDS011;54478;48.684;20.114;2023-12-22T05:02:34;22.40;;;10.68;;
63120;SDS011;54478;48.684;20.114;2023-12-22T05:05:02;30.25;;;16.33;;
63120;SDS011;54478;48.684;20.114;2023-12-22T05:07:31;18.48;;;6.63;;
63120;SDS011;54478;48.684;20.114;2023-12-22T05:09:59;9.02;;;4.75;;
63120;SDS011;54478;48.684;20.114;2023-12-22T05:12:27;12.30;;;5.80;;
63120;SDS011;54478;48.684;20.114;2023-12-22T05:14:52;21.70;;;9.45;;
63120;SDS011;54478;48.684;20.114;2023-12-22T05:17:20;23.10;;;9.15;;
63120;SDS011;54478;48.684;20.114;2023-12-22T05:19:48;38.45;;;17.10;;
63120;SDS011;54478;48.684;20.114;2023-12-22T05:22:16;5.57;;;2.88;;
63120;SDS011;54478;48.684;20.114;2023-12-22T05:24:44;8.68;;;3.78;;
63120;SDS011;54478;48.684;20.114;2023-12-22T05:27:13;12.32;;;7.50;;
63120;SDS011;54478;48.684;20.114;2023-12-22T05:29:39;21.02;;;12.15;;
63120;SDS011;54478;48.684;20.114;2023-12-22T05:32:07;14.05;;;4.95;;
63120;SDS011;54478;48.684;20.114;2023-12-22T05:34:35;8.00;;;4.50;;
63120;SDS011;54478;48.684;20.114;2023-12-22T05:37:04;7.82;;;3.72;;
63120;SDS011;54478;48.684;20.114;2023-12-22T05:39:32;9.13;;;3.95;;
63120;SDS011;54478;48.684;20.114;2023-12-22T05:42:00;8.65;;;2.72;;
63120;SDS011;54478;48.684;20.114;2023-12-22T05:44:28;3.13;;;1.42;;
63120;SDS011;54478;48.684;20.114;2023-12-22T05:46:58;4.28;;;1.38;;
63120;SDS011;54478;48.684;20.114;2023-12-22T05:49:26;0.50;;;0.50;;
63120;SDS011;54478;48.684;20.114;2023-12-22T05:51:54;3.20;;;1.55;;
63120;SDS011;54478;48.684;20.114;2023-12-22T05:54:22;2.53;;;1.42;;
63120;SDS011;54478;48.684;20.114;2023-12-22T05:56:52;5.40;;;2.63;;
63120;SDS011;54478;48.684;20.114;2023-12-22T05:59:20;3.55;;;1.80;;
63120;SDS011;54478;48.684;20.114;2023-12-22T06:01:52;13.43;;;2.78;;
63120;SDS011;54478;48.684;20.114;2023-12-22T06:06:49;19.80;;;6.43;;
63120;SDS011;54478;48.684;20.114;2023-12-22T06:09:17;36.90;;;13.38;;
63120;SDS011;54478;48.684;20.114;2023-12-22T06:11:48;2.85;;;1.15;;
63120;SDS011;54478;48.684;20.114;2023-12-22T06:14:16;5.43;;;1.95;;
63120;SDS011;54478;48.684;20.114;2023-12-22T06:16:42;0.93;;;0.85;;
63120;SDS011;54478;48.684;20.114;2023-12-22T06:19:10;7.13;;;1.15;;
63120;SDS011;54478;48.684;20.114;2023-12-22T06:21:38;5.22;;;1.20;;
63120;SDS011;54478;48.684;20.114;2023-12-22T06:24:07;2.67;;;1.10;;
63120;SDS011;54478;48.684;20.114;2023-12-22T06:26:35;2.22;;;0.82;;
63120;SDS011;54478;48.684;20.114;2023-12-22T06:29:04;2.03;;;1.17;;
63120;SDS011;54478;48.684;20.114;2023-12-22T06:31:32;2.95;;;1.35;;
63120;SDS011;54478;48.684;20.114;2023-12-22T06:34:00;10.07;;;2.63;;
63120;SDS011;54478;48.684;20.114;2023-12-22T06:36:30;7.82;;;2.65;;
63120;SDS011;54478;48.684;20.114;2023-12-22T06:38:58;6.25;;;1.75;;
63120;SDS011;54478;48.684;20.114;2023-12-22T06:41:27;3.58;;;1.33;;
63120;SDS011;54478;48.684;20.114;2023-12-22T06:43:55;6.97;;;2.97;;
63120;SDS011;54478;48.684;20.114;2023-12-22T06:46:24;4.40;;;1.38;;
63120;SDS011;54478;48.684;20.114;2023-12-22T06:48:56;2.72;;;1.20;;
63120;SDS011;54478;48.684;20.114;2023-12-22T06:51:28;10.05;;;3.08;;
63120;SDS011;54478;48.684;20.114;2023-12-22T06:53:56;4.65;;;2.75;;
63120;SDS011;54478;48.684;20.114;2023-12-22T06:56:25;7.20;;;4.45;;
63120;SDS011;54478;48.684;20.114;2023-12-22T06:58:54;13.15;;;6.75;;
63120;SDS011;54478;48.684;20.114;2023-12-22T07:03:55;5.53;;;3.27;;
63120;SDS011;54478;48.684;20.114;2023-12-22T07:06:24;5.38;;;2.08;;
63120;SDS011;54478;48.684;20.114;2023-12-22T07:11:38;11.88;;;4.28;;
63120;SDS011;54478;48.684;20.114;2023-12-22T07:14:04;18.25;;;6.75;;
63120;SDS011;54478;48.684;20.114;2023-12-22T07:16:32;2.67;;;1.75;;
63120;SDS011;54478;48.684;20.114;2023-12-22T07:19:01;11.43;;;3.97;;
63120;SDS011;54478;48.684;20.114;2023-12-22T07:21:29;14.40;;;5.78;;
63120;SDS011;54478;48.684;20.114;2023-12-22T07:23:57;19.83;;;8.45;;
63120;SDS011;54478;48.684;20.114;2023-12-22T07:26:28;25.00;;;11.40;;
63120;SDS011;54478;48.684;20.114;2023-12-22T07:28:57;14.65;;;7.35;;
63120;SDS011;54478;48.684;20.114;2023-12-22T07:31:23;7.60;;;2.55;;
63120;SDS011;54478;48.684;20.114;2023-12-22T07:33:52;2.03;;;0.80;;
63120;SDS011;54478;48.684;20.114;2023-12-22T07:36:20;2.83;;;1.50;;
63120;SDS011;54478;48.684;20.114;2023-12-22T07:38:49;3.95;;;1.40;;
63120;SDS011;54478;48.684;20.114;2023-12-22T07:41:17;1.55;;;0.90;;
63120;SDS011;54478;48.684;20.114;2023-12-22T07:43:45;2.95;;;1.20;;
63120;SDS011;54478;48.684;20.114;2023-12-22T07:46:17;3.47;;;1.42;;
63120;SDS011;54478;48.684;20.114;2023-12-22T07:48:45;5.30;;;2.50;;
63120;SDS011;54478;48.684;20.114;2023-12-22T07:51:13;8.73;;;3.65;;
63120;SDS011;54478;48.684;20.114;2023-12-22T07:53:39;8.05;;;3.08;;
63120;SDS011;54478;48.684;20.114;2023-12-22T07:56:08;5.05;;;2.25;;
63120;SDS011;54478;48.684;20.114;2023-12-22T07:58:38;17.73;;;6.43;;
63120;SDS011;54478;48.684;20.114;2023-12-22T08:01:06;9.63;;;3.65;;
63120;SDS011;54478;48.684;20.114;2023-12-22T08:03:34;2.50;;;1.33;;
63120;SDS011;54478;48.684;20.114;2023-12-22T08:06:02;5.68;;;2.67;;
63120;SDS011;54478;48.684;20.114;2023-12-22T08:08:31;12.15;;;4.82;;
63120;SDS011;54478;48.684;20.114;2023-12-22T08:11:01;12.15;;;5.45;;
63120;SDS011;54478;48.684;20.114;2023-12-22T08:13:29;23.00;;;9.63;;
63120;SDS011;54478;48.684;20.114;2023-12-22T08:15:57;8.95;;;3.05;;
63120;SDS011;54478;48.684;20.114;2023-12-22T08:18:25;7.55;;;3.70;;
63120;SDS011;54478;48.684;20.114;2023-12-22T08:20:54;12.20;;;4.35;;
63120;SDS011;54478;48.684;20.114;2023-12-22T08:23:22;7.05;;;3.40;;
63120;SDS011;54478;48.684;20.114;2023-12-22T08:25:50;9.30;;;4.55;;
63120;SDS011;54478;48.684;20.114;2023-12-22T08:28:18;20.35;;;7.82;;
63120;SDS011;54478;48.684;20.114;2023-12-22T08:30:43;6.15;;;3.33;;
63120;SDS011;54478;48.684;20.114;2023-12-22T08:33:11;9.90;;;4.13;;
63120;SDS011;54478;48.684;20.114;2023-12-22T08:35:39;7.93;;;4.45;;
63120;SDS011;54478;48.684;20.114;2023-12-22T08:38:07;10.32;;;3.75;;
63120;SDS011;54478;48.684;20.114;2023-12-22T08:40:35;8.82;;;4.07;;
63120;SDS011;54478;48.684;20.114;2023-12-22T08:43:03;23.00;;;12.68;;
63120;SDS011;54478;48.684;20.114;2023-12-22T08:45:34;14.98;;;7.70;;
63120;SDS011;54478;48.684;20.114;2023-12-22T08:48:02;8.65;;;4.72;;
63120;SDS011;54478;48.684;20.114;2023-12-22T08:50:28;21.80;;;11.88;;
63120;SDS011;54478;48.684;20.114;2023-12-22T08:52:56;21.67;;;9.98;;
63120;SDS011;54478;48.684;20.114;2023-12-22T08:55:24;14.98;;;8.38;;
63120;SDS011;54478;48.684;20.114;2023-12-22T08:57:52;12.93;;;5.57;;
63120;SDS011;54478;48.684;20.114;2023-12-22T09:00:20;20.98;;;10.73;;
63120;SDS011;54478;48.684;20.114;2023-12-22T09:02:48;17.42;;;8.52;;
63120;SDS011;54478;48.684;20.114;2023-12-22T09:05:16;21.40;;;11.43;;
63120;SDS011;54478;48.684;20.114;2023-12-22T09:07:46;28.52;;;13.48;;
63120;SDS011;54478;48.684;20.114;2023-12-22T09:10:14;19.52;;;8.73;;
63120;SDS011;54478;48.684;20.114;2023-12-22T09:12:42;18.15;;;9.02;;
63120;SDS011;54478;48.684;20.114;2023-12-22T09:15:10;17.38;;;8.07;;
63120;SDS011;54478;48.684;20.114;2023-12-22T09:17:38;12.55;;;5.38;;
63120;SDS011;54478;48.684;20.114;2023-12-22T09:20:06;12.75;;;5.88;;
63120;SDS011;54478;48.684;20.114;2023-12-22T09:22:35;14.98;;;6.80;;
63120;SDS011;54478;48.684;20.114;2023-12-22T09:25:04;15.07;;;6.80;;
63120;SDS011;54478;48.684;20.114;2023-12-22T09:27:32;12.23;;;6.25;;
63120;SDS011;54478;48.684;20.114;2023-12-22T09:29:57;11.18;;;5.43;;
63120;SDS011;54478;48.684;20.114;2023-12-22T09:32:25;9.77;;;5.75;;
63120;SDS011;54478;48.684;20.114;2023-12-22T09:34:54;12.43;;;5.32;;
63120;SDS011;54478;48.684;20.114;2023-12-22T09:37:24;6.47;;;4.00;;
63120;SDS011;54478;48.684;20.114;2023-12-22T09:39:52;7.43;;;3.80;;
63120;SDS011;54478;48.684;20.114;2023-12-22T09:42:21;6.63;;;3.53;;
63120;SDS011;54478;48.684;20.114;2023-12-22T09:44:49;6.07;;;2.92;;
63120;SDS011;54478;48.684;20.114;2023-12-22T09:47:19;5.63;;;2.97;;
63120;SDS011;54478;48.684;20.114;2023-12-22T09:49:47;7.55;;;3.35;;
63120;SDS011;54478;48.684;20.114;2023-12-22T09:52:16;8.82;;;3.08;;
63120;SDS011;54478;48.684;20.114;2023-12-22T09:54:44;8.95;;;3.08;;
63120;SDS011;54478;48.684;20.114;2023-12-22T09:57:14;9.35;;;3.38;;
63120;SDS011;54478;48.684;20.114;2023-12-22T09:59:43;7.25;;;3.35;;
63120;SDS011;54478;48.684;20.114;2023-12-22T10:02:11;5.82;;;3.30;;
63120;SDS011;54478;48.684;20.114;2023-12-22T10:04:39;10.05;;;3.13;;
63120;SDS011;54478;48.684;20.114;2023-12-22T10:07:08;8.05;;;4.72;;
63120;SDS011;54478;48.684;20.114;2023-12-22T10:09:37;11.80;;;5.43;;
63120;SDS011;54478;48.684;20.114;2023-12-22T10:12:05;19.67;;;10.30;;
63120;SDS011;54478;48.684;20.114;2023-12-22T10:14:34;9.18;;;4.10;;
63120;SDS011;54478;48.684;20.114;2023-12-22T10:17:04;6.97;;;3.65;;
63120;SDS011;54478;48.684;20.114;2023-12-22T10:19:32;4.93;;;2.38;;
63120;SDS011;54478;48.684;20.114;2023-12-22T10:22:00;7.63;;;2.58;;
63120;SDS011;54478;48.684;20.114;2023-12-22T10:24:38;5.05;;;1.85;;
63120;SDS011;54478;48.684;20.114;2023-12-22T10:27:04;2.22;;;1.17;;
63120;SDS011;54478;48.684;20.114;2023-12-22T10:29:30;2.45;;;1.10;;
63120;SDS011;54478;48.684;20.114;2023-12-22T10:31:57;9.95;;;4.03;;
63120;SDS011;54478;48.684;20.114;2023-12-22T10:34:23;11.73;;;3.13;;
63120;SDS011;54478;48.684;20.114;2023-12-22T10:36:51;4.72;;;1.38;;
63120;SDS011;54478;48.684;20.114;2023-12-22T10:39:19;1.85;;;1.00;;
63120;SDS011;54478;48.684;20.114;2023-12-22T10:41:49;4.47;;;1.63;;
63120;SDS011;54478;48.684;20.114;2023-12-22T10:44:17;4.47;;;1.80;;
63120;SDS011;54478;48.684;20.114;2023-12-22T10:46:46;1.65;;;1.20;;
63120;SDS011;54478;48.684;20.114;2023-12-22T10:49:15;3.60;;;1.50;;
63120;SDS011;54478;48.684;20.114;2023-12-22T10:51:43;4.80;;;1.80;;
63120;SDS011;54478;48.684;20.114;2023-12-22T10:54:11;6.35;;;1.58;;
63120;SDS011;54478;48.684;20.114;2023-12-22T10:56:40;4.45;;;2.15;;
63120;SDS011;54478;48.684;20.114;2023-12-22T10:59:08;4.10;;;1.98;;
63120;SDS011;54478;48.684;20.114;2023-12-22T11:01:37;2.55;;;1.27;;
63120;SDS011;54478;48.684;20.114;2023-12-22T11:04:07;6.25;;;1.20;;
63120;SDS011;54478;48.684;20.114;2023-12-22T11:06:36;5.78;;;1.45;;
63120;SDS011;54478;48.684;20.114;2023-12-22T11:09:06;1.90;;;0.90;;
63120;SDS011;54478;48.684;20.114;2023-12-22T11:11:35;2.47;;;1.38;;
63120;SDS011;54478;48.684;20.114;2023-12-22T11:14:04;4.78;;;0.90;;
63120;SDS011;54478;48.684;20.114;2023-12-22T11:16:34;2.50;;;1.40;;
63120;SDS011;54478;48.684;20.114;2023-12-22T11:19:03;7.13;;;2.50;;
63120;SDS011;54478;48.684;20.114;2023-12-22T11:21:31;6.28;;;1.65;;
63120;SDS011;54478;48.684;20.114;2023-12-22T11:24:00;2.53;;;1.48;;
63120;SDS011;54478;48.684;20.114;2023-12-22T11:26:29;2.30;;;0.90;;
63120;SDS011;54478;48.684;20.114;2023-12-22T11:28:57;5.65;;;1.90;;
63120;SDS011;54478;48.684;20.114;2023-12-22T11:31:22;18.05;;;5.28;;
63120;SDS011;54478;48.684;20.114;2023-12-22T11:33:51;2.47;;;1.20;;
63120;SDS011;54478;48.684;20.114;2023-12-22T11:36:19;2.35;;;1.40;;
63120;SDS011;54478;48.684;20.114;2023-12-22T11:38:47;9.10;;;4.47;;
63120;SDS011;54478;48.684;20.114;2023-12-22T11:41:21;5.55;;;1.60;;
63120;SDS011;54478;48.684;20.114;2023-12-22T11:43:50;4.28;;;1.88;;
63120;SDS011;54478;48.684;20.114;2023-12-22T11:46:19;3.53;;;1.40;;
63120;SDS011;54478;48.684;20.114;2023-12-22T11:48:47;3.88;;;2.10;;
63120;SDS011;54478;48.684;20.114;2023-12-22T11:51:17;3.88;;;1.52;;
63120;SDS011;54478;48.684;20.114;2023-12-22T11:53:45;3.33;;;1.25;;
63120;SDS011;54478;48.684;20.114;2023-12-22T11:56:13;1.70;;;0.60;;
63120;SDS011;54478;48.684;20.114;2023-12-22T11:58:42;1.77;;;1.05;;
63120;SDS011;54478;48.684;20.114;2023-12-22T12:01:14;1.50;;;0.70;;
63120;SDS011;54478;48.684;20.114;2023-12-22T12:03:48;0.52;;;0.52;;
63120;SDS011;54478;48.684;20.114;2023-12-22T12:06:18;2.25;;;0.60;;
63120;SDS011;54478;48.684;20.114;2023-12-22T12:08:47;1.27;;;0.55;;
63120;SDS011;54478;48.684;20.114;2023-12-22T12:11:16;4.43;;;1.90;;
63120;SDS011;54478;48.684;20.114;2023-12-22T12:13:45;9.48;;;2.15;;
63120;SDS011;54478;48.684;20.114;2023-12-22T12:16:15;8.95;;;4.85;;
63120;SDS011;54478;48.684;20.114;2023-12-22T12:18:43;6.88;;;3.08;;
63120;SDS011;54478;48.684;20.114;2023-12-22T12:21:12;10.65;;;4.80;;
63120;SDS011;54478;48.684;20.114;2023-12-22T12:23:41;3.70;;;1.52;;
63120;SDS011;54478;48.684;20.114;2023-12-22T12:26:09;11.00;;;5.47;;
63120;SDS011;54478;48.684;20.114;2023-12-22T12:28:40;4.90;;;3.67;;
63120;SDS011;54478;48.684;20.114;2023-12-22T12:31:09;1.65;;;1.13;;
63120;SDS011;54478;48.684;20.114;2023-12-22T12:33:37;4.25;;;2.00;;
63120;SDS011;54478;48.684;20.114;2023-12-22T12:36:06;3.03;;;1.98;;
63120;SDS011;54478;48.684;20.114;2023-12-22T12:38:36;1.80;;;1.02;;
63120;SDS011;54478;48.684;20.114;2023-12-22T12:41:05;2.30;;;1.55;;
63120;SDS011;54478;48.684;20.114;2023-12-22T12:43:33;2.03;;;0.88;;
63120;SDS011;54478;48.684;20.114;2023-12-22T12:46:03;2.47;;;1.23;;
63120;SDS011;54478;48.684;20.114;2023-12-22T12:48:31;1.85;;;1.17;;
63120;SDS011;54478;48.684;20.114;2023-12-22T12:51:06;3.53;;;1.83;;
63120;SDS011;54478;48.684;20.114;2023-12-22T12:53:32;2.17;;;1.20;;
63120;SDS011;54478;48.684;20.114;2023-12-22T12:56:00;2.42;;;1.50;;
63120;SDS011;54478;48.684;20.114;2023-12-22T12:58:32;3.25;;;1.65;;
63120;SDS011;54478;48.684;20.114;2023-12-22T13:01:07;5.18;;;1.88;;
63120;SDS011;54478;48.684;20.114;2023-12-22T13:03:33;7.00;;;2.58;;
63120;SDS011;54478;48.684;20.114;2023-12-22T13:06:07;1.77;;;1.25;;
63120;SDS011;54478;48.684;20.114;2023-12-22T13:08:35;3.67;;;1.60;;
63120;SDS011;54478;48.684;20.114;2023-12-22T13:11:05;5.00;;;2.00;;
63120;SDS011;54478;48.684;20.114;2023-12-22T13:13:40;4.13;;;1.85;;
63120;SDS011;54478;48.684;20.114;2023-12-22T13:16:09;3.83;;;1.02;;
63120;SDS011;54478;48.684;20.114;2023-12-22T13:18:35;4.30;;;3.03;;
63120;SDS011;54478;48.684;20.114;2023-12-22T13:21:04;11.88;;;3.80;;
63120;SDS011;54478;48.684;20.114;2023-12-22T13:23:32;2.10;;;1.30;;
63120;SDS011;54478;48.684;20.114;2023-12-22T13:26:00;3.15;;;1.55;;
63120;SDS011;54478;48.684;20.114;2023-12-22T13:28:28;3.55;;;1.65;;
63120;SDS011;54478;48.684;20.114;2023-12-22T13:30:54;6.35;;;2.72;;
63120;SDS011;54478;48.684;20.114;2023-12-22T13:33:22;9.10;;;3.30;;
63120;SDS011;54478;48.684;20.114;2023-12-22T13:35:57;20.50;;;7.22;;
63120;SDS011;54478;48.684;20.114;2023-12-22T13:38:25;15.27;;;6.57;;
63120;SDS011;54478;48.684;20.114;2023-12-22T13:40:54;23.83;;;10.55;;
63120;SDS011;54478;48.684;20.114;2023-12-22T13:43:21;6.43;;;3.17;;
63120;SDS011;54478;48.684;20.114;2023-12-22T13:45:50;5.72;;;2.40;;
63120;SDS011;54478;48.684;20.114;2023-12-22T13:48:19;7.20;;;3.67;;
63120;SDS011;54478;48.684;20.114;2023-12-22T13:50:58;18.33;;;7.38;;
63120;SDS011;54478;48.684;20.114;2023-12-22T13:53:24;19.40;;;9.82;;
63120;SDS011;54478;48.684;20.114;2023-12-22T13:55:58;7.85;;;4.72;;
63120;SDS011;54478;48.684;20.114;2023-12-22T13:58:25;21.55;;;9.70;;
63120;SDS011;54478;48.684;20.114;2023-12-22T14:00:53;8.77;;;3.55;;
63120;SDS011;54478;48.684;20.114;2023-12-22T14:03:22;5.10;;;2.15;;
63120;SDS011;54478;48.684;20.114;2023-12-22T14:05:52;3.40;;;1.13;;
63120;SDS011;54478;48.684;20.114;2023-12-22T14:08:21;4.25;;;1.98;;
63120;SDS011;54478;48.684;20.114;2023-12-22T14:10:49;17.33;;;7.05;;
63120;SDS011;54478;48.684;20.114;2023-12-22T14:13:17;5.45;;;2.53;;
63120;SDS011;54478;48.684;20.114;2023-12-22T14:15:45;4.95;;;2.25;;
63120;SDS011;54478;48.684;20.114;2023-12-22T14:18:13;8.88;;;3.60;;
63120;SDS011;54478;48.684;20.114;2023-12-22T14:20:41;7.78;;;2.72;;
63120;SDS011;54478;48.684;20.114;2023-12-22T14:23:09;9.63;;;3.80;;
63120;SDS011;54478;48.684;20.114;2023-12-22T14:25:39;10.55;;;4.68;;
63120;SDS011;54478;48.684;20.114;2023-12-22T14:28:08;8.88;;;5.13;;
63120;SDS011;54478;48.684;20.114;2023-12-22T14:30:33;17.23;;;8.55;;
63120;SDS011;54478;48.684;20.114;2023-12-22T14:33:02;19.40;;;9.80;;
63120;SDS011;54478;48.684;20.114;2023-12-22T14:35:30;16.83;;;9.48;;
63120;SDS011;54478;48.684;20.114;2023-12-22T14:37:58;8.00;;;4.40;;
63120;SDS011;54478;48.684;20.114;2023-12-22T14:40:26;9.70;;;3.90;;
63120;SDS011;54478;48.684;20.114;2023-12-22T14:42:54;11.10;;;3.70;;
63120;SDS011;54478;48.684;20.114;2023-12-22T14:45:22;9.82;;;4.65;;
63120;SDS011;54478;48.684;20.114;2023-12-22T14:47:50;7.47;;;3.25;;
63120;SDS011;54478;48.684;20.114;2023-12-22T14:50:21;7.00;;;3.33;;